Time;durP1;ratioP1;P1;durP2;ratioP2;P2;SDS_P1;SDS_P2;PMS_P1;PMS_P2;Temp;Humidity;BMP_temperature;BMP_pressure;BME280_temperature;BME280_humidity;BME280_pressure;Samples;Min_cycle;Max_cycle;Signal;HPM_P1;HPM_P2
2022/07/19 00:00:20;;;;;;;8.32;2.88;;;;;;;12.99;100.00;98982.53;2608664;28;20491;-75
2022/07/19 00:01:52;;;;;;;4.50;2.33;;;;;;;13.13;100.00;98981.28;2608766;28;20048;-75
2022/07/19 00:03:07;;;;;;;3.20;2.40;;;;;;;13.18;100.00;98984.59;2608760;28;20068;-74
2022/07/19 00:04:23;;;;;;;3.92;2.45;;;;;;;13.15;100.00;98984.72;2608843;28;20048;-74
2022/07/19 00:05:38;;;;;;;4.43;2.40;;;;;;;13.22;100.00;98982.75;2608535;28;20052;-74
2022/07/19 00:06:57;;;;;;;3.33;2.38;;;;;;;13.25;100.00;98974.75;2608726;28;20148;-74
2022/07/19 00:08:12;;;;;;;3.50;2.40;;;;;;;13.28;100.00;98986.06;2608828;28;20049;-74
2022/07/19 00:09:28;;;;;;;3.25;2.00;;;;;;;13.31;100.00;98976.34;2608678;28;20525;-75
2022/07/19 00:10:44;;;;;;;4.13;2.60;;;;;;;13.29;100.00;98981.69;2608193;28;20106;-75
2022/07/19 00:12:01;;;;;;;3.15;2.35;;;;;;;13.27;100.00;98976.44;2608476;28;20112;-74
2022/07/19 00:13:16;;;;;;;4.03;2.38;;;;;;;13.25;100.00;98980.91;2608784;28;20092;-74
2022/07/19 00:14:31;;;;;;;6.10;2.42;;;;;;;13.25;100.00;98980.91;2607699;28;20047;-75
2022/07/19 00:15:47;;;;;;;5.63;2.50;;;;;;;13.22;100.00;98978.38;2608003;28;20384;-74
2022/07/19 00:17:03;;;;;;;4.38;2.63;;;;;;;13.16;100.00;98975.91;2608313;28;20890;-76
2022/07/19 00:18:18;;;;;;;3.95;2.67;;;;;;;13.10;100.00;98976.94;2608501;28;20044;-76
2022/07/19 00:19:34;;;;;;;2.67;2.45;;;;;;;13.07;100.00;98981.47;2608341;28;20049;-74
2022/07/19 00:20:49;;;;;;;3.38;2.63;;;;;;;13.05;100.00;98973.59;2608846;28;20510;-74
2022/07/19 00:22:06;;;;;;;4.32;2.30;;;;;;;13.07;100.00;98971.78;2606944;28;20076;-74
2022/07/19 00:23:21;;;;;;;6.45;2.78;;;;;;;13.00;100.00;98975.53;2607903;28;20041;-75
2022/07/19 00:24:36;;;;;;;4.93;2.50;;;;;;;13.02;100.00;98980.72;2608627;28;20048;-76
2022/07/19 00:25:52;;;;;;;3.63;2.30;;;;;;;12.91;100.00;98981.03;2608663;28;20095;-76
2022/07/19 00:27:08;;;;;;;3.58;2.40;;;;;;;12.82;100.00;98983.00;2608330;28;20045;-76
2022/07/19 00:28:23;;;;;;;6.47;2.80;;;;;;;12.68;100.00;98978.16;2608568;28;20051;-76
2022/07/19 00:29:39;;;;;;;3.33;2.42;;;;;;;12.69;100.00;98974.63;2607941;28;20068;-76
2022/07/19 00:30:54;;;;;;;3.65;2.80;;;;;;;12.79;100.00;98977.84;2608558;28;20045;-76
2022/07/19 00:32:10;;;;;;;3.05;2.33;;;;;;;12.80;100.00;98978.72;2608270;28;20146;-76
2022/07/19 00:33:26;;;;;;;4.28;2.45;;;;;;;12.75;100.00;98978.84;2609027;28;20052;-76
2022/07/19 00:34:41;;;;;;;3.03;2.33;;;;;;;12.74;100.00;98974.50;2607558;28;20055;-75
2022/07/19 00:35:57;;;;;;;3.08;2.35;;;;;;;12.65;100.00;98970.38;2608234;28;20049;-75
2022/07/19 00:37:13;;;;;;;5.07;2.50;;;;;;;12.66;100.00;98972.09;2608393;28;20089;-74
2022/07/19 00:38:28;;;;;;;2.65;2.40;;;;;;;12.77;100.00;98974.41;2608755;28;20056;-75
2022/07/19 00:39:44;;;;;;;4.15;2.60;;;;;;;12.90;100.00;98974.91;2608306;28;20046;-74
2022/07/19 00:41:01;;;;;;;3.75;2.53;;;;;;;12.95;100.00;98980.03;2608352;28;20045;-74
2022/07/19 00:42:18;;;;;;;5.60;3.17;;;;;;;12.92;100.00;98970.50;2608475;28;20407;-75
2022/07/19 00:43:33;;;;;;;3.03;2.30;;;;;;;12.86;100.00;98973.28;2607976;28;20140;-74
2022/07/19 00:44:49;;;;;;;3.95;2.45;;;;;;;12.88;100.00;98973.25;2608214;28;20068;-74
2022/07/19 00:46:11;;;;;;;3.80;2.47;;;;;;;12.81;100.00;98976.03;2608103;28;20052;-74
2022/07/19 00:47:27;;;;;;;3.60;2.50;;;;;;;12.80;100.00;98971.69;2607788;28;20503;-74
2022/07/19 00:48:43;;;;;;;3.47;2.22;;;;;;;12.83;100.00;98973.38;2608553;28;20049;-74
2022/07/19 00:49:58;;;;;;;3.90;2.55;;;;;;;12.85;100.00;98976.81;2608381;28;20220;-75
2022/07/19 00:51:15;;;;;;;3.60;2.50;;;;;;;12.91;100.00;98981.03;2608162;28;20064;-75
2022/07/19 00:52:32;;;;;;;3.33;2.70;;;;;;;12.95;100.00;98974.78;2607575;28;20060;-74
2022/07/19 00:53:48;;;;;;;6.53;2.58;;;;;;;12.97;100.00;98975.59;2608792;28;20049;-75
2022/07/19 00:55:05;;;;;;;4.03;2.75;;;;;;;12.94;100.00;98975.69;2607806;28;20040;-75
2022/07/19 00:56:22;;;;;;;3.58;2.47;;;;;;;12.93;100.00;98976.59;2607455;28;20155;-74
2022/07/19 00:57:38;;;;;;;3.10;2.67;;;;;;;12.88;100.00;98979.34;2608305;28;20902;-75
2022/07/19 00:58:54;;;;;;;4.90;2.70;;;;;;;12.74;100.00;98979.75;2608414;28;20041;-74
2022/07/19 01:00:10;;;;;;;3.63;2.47;;;;;;;12.64;100.00;98981.78;2607254;28;20411;-75
2022/07/19 01:01:25;;;;;;;3.90;2.45;;;;;;;12.55;100.00;98982.88;2608541;28;20048;-74
2022/07/19 01:02:41;;;;;;;5.38;2.50;;;;;;;12.46;100.00;98982.28;2607812;28;20376;-75
2022/07/19 01:03:58;;;;;;;3.33;2.30;;;;;;;12.37;100.00;98984.25;2607201;28;20399;-76
2022/07/19 01:05:13;;;;;;;2.53;2.22;;;;;;;12.31;100.00;98986.19;2607045;28;20524;-76
2022/07/19 01:06:29;;;;;;;2.80;2.47;;;;;;;12.36;100.00;98979.91;2607173;28;20048;-76
2022/07/19 01:07:45;;;;;;;3.30;2.33;;;;;;;12.35;100.00;98978.16;2607414;28;20048;-77
2022/07/19 01:09:01;;;;;;;5.22;2.70;;;;;;;12.34;100.00;98978.22;2608438;28;20059;-76
2022/07/19 01:10:17;;;;;;;8.23;2.80;;;;;;;12.38;100.00;98977.22;2607678;28;20496;-76
2022/07/19 01:11:32;;;;;;;3.65;2.72;;;;;;;12.44;100.00;98977.09;2608190;28;20072;-76
2022/07/19 01:12:48;;;;;;;3.95;2.47;;;;;;;12.50;100.00;98976.91;2607756;28;20048;-76
2022/07/19 01:14:04;;;;;;;4.20;2.90;;;;;;;12.48;100.00;98977.84;2607342;28;20045;-76
2022/07/19 01:15:22;;;;;;;5.70;2.60;;;;;;;12.47;100.00;98973.50;2607473;28;20115;-76
2022/07/19 01:16:43;;;;;;;8.77;4.00;;;;;;;12.47;100.00;98981.38;2607492;28;20140;-76
2022/07/19 01:17:59;;;;;;;5.28;3.90;;;;;;;12.58;100.00;98974.06;2607745;28;20084;-76
2022/07/19 01:19:14;;;;;;;5.80;4.00;;;;;;;12.55;100.00;98976.78;2608324;28;20503;-77
2022/07/19 01:20:30;;;;;;;6.55;4.00;;;;;;;12.55;100.00;98975.00;2607764;28;20061;-76
2022/07/19 01:21:45;;;;;;;8.98;3.72;;;;;;;12.49;100.00;98975.19;2607563;28;20491;-76
2022/07/19 01:23:02;;;;;;;3.92;2.40;;;;;;;12.41;100.00;98977.13;2607862;28;20144;-75
2022/07/19 01:24:17;;;;;;;4.05;2.85;;;;;;;12.28;100.00;98982.72;2607858;28;20049;-75
2022/07/19 01:25:35;;;;;;;4.78;2.90;;;;;;;12.15;100.00;98978.69;2608353;28;20054;-74
2022/07/19 01:26:51;;;;;;;3.22;2.22;;;;;;;12.22;100.00;98979.38;2607670;28;20083;-75
2022/07/19 01:28:07;;;;;;;4.80;2.55;;;;;;;12.25;100.00;98972.31;2607945;28;20549;-74
2022/07/19 01:29:23;;;;;;;5.30;2.45;;;;;;;12.23;100.00;98984.59;2607804;28;20049;-74
2022/07/19 01:30:38;;;;;;;3.33;2.45;;;;;;;12.21;100.00;98983.78;2607839;28;20109;-74
2022/07/19 01:31:53;;;;;;;4.45;3.22;;;;;;;12.21;100.00;98980.28;2607764;28;20041;-74
2022/07/19 01:33:09;;;;;;;4.22;2.90;;;;;;;12.28;100.00;98981.88;2607711;28;20131;-74
2022/07/19 01:34:25;;;;;;;3.10;2.80;;;;;;;12.28;100.00;98977.47;2607612;28;20419;-74
2022/07/19 01:35:40;;;;;;;4.25;2.67;;;;;;;12.28;100.00;98979.25;2607698;28;20056;-74
2022/07/19 01:36:56;;;;;;;3.70;2.67;;;;;;;12.32;100.00;98988.75;2607795;28;20078;-74
2022/07/19 01:38:12;;;;;;;4.47;2.70;;;;;;;12.30;100.00;98974.81;2607945;28;20060;-75
2022/07/19 01:39:27;;;;;;;4.93;2.70;;;;;;;12.24;100.00;98983.72;2607271;28;20057;-74
2022/07/19 01:40:43;;;;;;;2.75;2.40;;;;;;;12.29;100.00;98980.97;2607795;28;20045;-74
2022/07/19 01:41:58;;;;;;;3.75;2.78;;;;;;;12.23;100.00;98971.47;2607695;28;20372;-75
2022/07/19 01:43:14;;;;;;;4.47;2.78;;;;;;;12.20;100.00;98976.81;2608022;28;20060;-75
2022/07/19 01:44:30;;;;;;;4.13;2.63;;;;;;;12.25;100.00;98974.09;2607529;28;20053;-74
2022/07/19 01:45:45;;;;;;;3.70;2.60;;;;;;;12.27;100.00;98980.16;2607387;28;20286;-74
2022/07/19 01:47:01;;;;;;;4.07;2.80;;;;;;;12.25;100.00;98974.94;2607492;28;20049;-74
2022/07/19 01:48:17;;;;;;;4.45;2.55;;;;;;;12.17;100.00;98968.16;2607952;28;20049;-75
2022/07/19 01:49:33;;;;;;;2.95;2.38;;;;;;;12.15;100.00;98976.06;2607741;28;20052;-75
2022/07/19 01:50:48;;;;;;;2.92;2.60;;;;;;;12.16;100.00;98975.19;2607792;28;20041;-75
2022/07/19 01:52:04;;;;;;;4.75;2.85;;;;;;;12.15;100.00;98970.81;2607944;28;20041;-75
2022/07/19 01:53:20;;;;;;;3.58;2.70;;;;;;;12.05;100.00;98972.81;2607313;28;20253;-74
2022/07/19 01:54:35;;;;;;;3.15;2.63;;;;;;;12.11;100.00;98974.44;2607899;28;20545;-75
2022/07/19 01:55:51;;;;;;;3.88;2.83;;;;;;;12.07;100.00;98972.78;2606301;28;20106;-75
2022/07/19 01:57:06;;;;;;;5.03;2.70;;;;;;;12.13;100.00;98972.63;2606324;28;21026;-74
2022/07/19 01:58:22;;;;;;;3.25;2.63;;;;;;;12.12;100.00;98976.16;2607342;28;20483;-74
2022/07/19 01:59:38;;;;;;;3.58;2.80;;;;;;;12.21;100.00;98975.03;2607816;28;20065;-74
2022/07/19 02:00:54;;;;;;;3.00;2.67;;;;;;;12.19;100.00;98979.47;2607469;28;20395;-74
2022/07/19 02:02:09;;;;;;;2.95;2.58;;;;;;;12.13;100.00;98973.50;2607945;28;20053;-75
2022/07/19 02:03:25;;;;;;;5.55;2.90;;;;;;;12.13;100.00;98975.25;2607443;28;20660;-75
2022/07/19 02:04:40;;;;;;;4.53;2.80;;;;;;;12.08;100.00;98969.25;2607628;28;20510;-77
2022/07/19 02:05:56;;;;;;;3.85;2.40;;;;;;;12.04;100.00;98975.50;2606127;28;20459;-75
2022/07/19 02:07:12;;;;;;;3.05;2.72;;;;;;;12.06;100.00;98977.16;2606574;28;20045;-75
2022/07/19 02:08:28;;;;;;;3.03;2.65;;;;;;;12.03;100.00;98969.38;2607323;28;20061;-75
2022/07/19 02:09:44;;;;;;;5.88;3.13;;;;;;;12.00;100.00;98978.13;2607870;28;20047;-74
2022/07/19 02:10:59;;;;;;;2.90;2.60;;;;;;;12.06;100.00;98965.81;2607490;28;20057;-75
2022/07/19 02:12:15;;;;;;;3.47;2.50;;;;;;;12.05;100.00;98969.34;2607407;28;20055;-75
2022/07/19 02:13:31;;;;;;;3.88;2.72;;;;;;;11.98;100.00;98961.56;2607507;28;20052;-74
2022/07/19 02:14:46;;;;;;;3.13;2.60;;;;;;;12.01;100.00;98968.53;2607147;28;20403;-75
2022/07/19 02:16:02;;;;;;;4.07;2.60;;;;;;;12.02;100.00;98966.81;2606958;28;20438;-74
2022/07/19 02:17:17;;;;;;;3.47;2.90;;;;;;;11.93;100.00;98968.72;2607528;28;20076;-75
2022/07/19 02:18:33;;;;;;;3.03;2.72;;;;;;;11.87;100.00;98967.09;2607328;28;20080;-75
2022/07/19 02:19:49;;;;;;;3.72;2.38;;;;;;;11.79;100.00;98965.56;2607559;28;20045;-74
2022/07/19 02:21:04;;;;;;;3.35;2.40;;;;;;;11.70;100.00;98967.50;2607306;28;20538;-75
2022/07/19 02:22:20;;;;;;;3.47;3.10;;;;;;;11.73;100.00;98970.09;2607180;28;20063;-74
2022/07/19 02:23:36;;;;;;;3.20;2.60;;;;;;;11.72;100.00;98970.09;2607028;28;20056;-76
2022/07/19 02:24:52;;;;;;;3.42;2.42;;;;;;;11.78;100.00;98969.09;2607372;28;20056;-75
2022/07/19 02:26:07;;;;;;;6.63;3.08;;;;;;;11.77;100.00;98970.00;2606697;28;20053;-75
2022/07/19 02:27:23;;;;;;;3.65;2.90;;;;;;;11.62;100.00;98968.59;2606631;28;20440;-75
2022/07/19 02:28:38;;;;;;;3.55;2.88;;;;;;;11.66;100.00;98976.34;2607475;28;20056;-75
2022/07/19 02:29:54;;;;;;;3.40;2.60;;;;;;;11.78;100.00;98974.34;2607378;28;20048;-75
2022/07/19 02:31:09;;;;;;;3.67;2.83;;;;;;;11.83;100.00;98973.34;2607799;28;20053;-74
2022/07/19 02:32:25;;;;;;;4.60;2.63;;;;;;;11.75;100.00;98979.69;2607096;28;20124;-75
2022/07/19 02:33:41;;;;;;;3.15;2.60;;;;;;;11.73;100.00;98971.81;2607678;28;20499;-74
2022/07/19 02:34:56;;;;;;;3.60;2.88;;;;;;;11.66;100.00;98978.97;2607610;28;20045;-75
2022/07/19 02:36:12;;;;;;;5.03;3.17;;;;;;;11.63;100.00;98971.19;2607785;28;20049;-74
2022/07/19 02:37:27;;;;;;;5.90;2.70;;;;;;;11.61;100.00;98974.75;2607094;28;20064;-75
2022/07/19 02:38:44;;;;;;;4.40;2.85;;;;;;;11.54;100.00;98971.41;2607557;28;20418;-75
2022/07/19 02:39:59;;;;;;;4.40;2.95;;;;;;;11.56;100.00;98975.72;2606908;28;20061;-74
2022/07/19 02:41:16;;;;;;;3.75;2.60;;;;;;;11.58;100.00;98970.41;2606854;28;20479;-76
2022/07/19 02:42:32;;;;;;;4.10;2.70;;;;;;;11.44;100.00;98974.22;2606954;28;20056;-76
2022/07/19 02:43:48;;;;;;;3.17;2.83;;;;;;;11.47;100.00;98970.69;2607128;28;20053;-76
2022/07/19 02:45:04;;;;;;;3.90;2.95;;;;;;;11.50;100.00;98977.63;2607439;28;20045;-76
2022/07/19 02:46:19;;;;;;;6.15;2.83;;;;;;;11.48;100.00;98974.19;2607925;28;20140;-76
2022/07/19 02:47:35;;;;;;;3.60;3.00;;;;;;;11.31;100.00;98975.41;2607465;28;20056;-76
2022/07/19 02:48:51;;;;;;;3.70;2.90;;;;;;;11.27;100.00;98971.13;2607784;28;20049;-76
2022/07/19 02:50:07;;;;;;;3.53;2.95;;;;;;;11.30;100.00;98978.91;2607239;28;20053;-77
2022/07/19 02:51:22;;;;;;;4.25;2.60;;;;;;;11.36;100.00;98976.19;2607586;28;20045;-76
2022/07/19 02:52:38;;;;;;;4.72;2.67;;;;;;;11.38;100.00;98973.50;2606134;28;20052;-76
2022/07/19 02:53:54;;;;;;;5.85;2.90;;;;;;;11.33;100.00;98981.50;2606667;28;20048;-76
2022/07/19 02:55:09;;;;;;;2.95;2.40;;;;;;;11.32;100.00;98971.91;2606596;28;20328;-74
2022/07/19 02:56:25;;;;;;;3.95;2.70;;;;;;;11.34;100.00;98982.34;2606820;28;20049;-74
2022/07/19 02:57:40;;;;;;;3.28;2.67;;;;;;;11.32;100.00;98979.78;2607315;28;20057;-75
2022/07/19 02:58:56;;;;;;;5.40;2.80;;;;;;;11.31;100.00;98980.63;2607271;28;20084;-75
2022/07/19 03:00:12;;;;;;;3.58;2.83;;;;;;;11.24;100.00;98984.31;2607056;28;20507;-74
2022/07/19 03:01:29;;;;;;;5.97;2.80;;;;;;;11.19;100.00;98984.41;2607091;28;20056;-75
2022/07/19 03:02:45;;;;;;;4.63;2.67;;;;;;;11.28;100.00;98984.22;2606665;28;20056;-75
2022/07/19 03:04:00;;;;;;;8.88;2.80;;;;;;;11.31;100.00;98983.25;2605946;28;20059;-74
2022/07/19 03:05:16;;;;;;;7.10;2.90;;;;;;;11.18;100.00;98984.47;2606064;28;20396;-75
2022/07/19 03:06:31;;;;;;;3.63;2.78;;;;;;;11.21;100.00;98992.25;2606545;28;20052;-74
2022/07/19 03:07:47;;;;;;;4.70;2.83;;;;;;;11.12;100.00;98982.84;2604807;28;20049;-74
2022/07/19 03:09:03;;;;;;;4.28;2.50;;;;;;;11.13;100.00;98995.03;2606930;28;20064;-75
2022/07/19 03:10:18;;;;;;;4.50;2.85;;;;;;;11.16;100.00;98995.81;2606985;28;20239;-74
2022/07/19 03:11:34;;;;;;;3.35;2.65;;;;;;;11.26;100.00;98995.63;2606847;28;20278;-74
2022/07/19 03:12:49;;;;;;;4.47;2.70;;;;;;;11.24;100.00;99003.50;2606730;28;20057;-74
2022/07/19 03:14:05;;;;;;;2.92;2.58;;;;;;;11.20;100.00;98990.53;2607058;28;20063;-74
2022/07/19 03:15:20;;;;;;;4.97;2.63;;;;;;;11.11;100.00;98997.69;2607371;28;20087;-74
2022/07/19 03:16:36;;;;;;;3.60;2.55;;;;;;;11.15;100.00;98995.88;2607036;28;20076;-74
2022/07/19 03:17:51;;;;;;;3.85;2.80;;;;;;;11.16;100.00;98998.44;2607260;28;20045;-74
2022/07/19 03:19:08;;;;;;;3.30;2.80;;;;;;;11.20;100.00;98996.63;2606743;28;20542;-75
2022/07/19 03:20:23;;;;;;;4.63;2.95;;;;;;;11.25;100.00;98992.16;2607153;28;20127;-76
2022/07/19 03:21:39;;;;;;;5.28;3.03;;;;;;;11.26;100.00;98993.88;2605997;28;20629;-76
2022/07/19 03:22:55;;;;;;;4.15;3.22;;;;;;;11.33;100.00;99004.22;2605700;28;20209;-76
2022/07/19 03:24:10;;;;;;;3.53;2.58;;;;;;;11.28;100.00;99001.69;2607209;28;20049;-76
2022/07/19 03:25:26;;;;;;;4.25;2.92;;;;;;;11.26;100.00;99001.75;2607464;28;20049;-76
2022/07/19 03:26:41;;;;;;;5.05;3.17;;;;;;;11.23;100.00;99000.94;2606441;28;20045;-76
2022/07/19 03:27:57;;;;;;;3.22;2.65;;;;;;;11.13;100.00;99001.13;2606089;28;20447;-76
2022/07/19 03:29:13;;;;;;;5.50;3.13;;;;;;;11.14;100.00;99002.84;2606259;28;20069;-76
2022/07/19 03:30:29;;;;;;;3.38;2.63;;;;;;;11.10;100.00;99008.19;2608474;28;20431;-76
2022/07/19 03:31:44;;;;;;;5.15;3.03;;;;;;;10.98;100.00;99004.06;2609162;28;20569;-76
2022/07/19 03:33:00;;;;;;;3.63;2.80;;;;;;;10.93;100.00;99005.94;2608965;28;20064;-76
2022/07/19 03:34:16;;;;;;;4.05;3.50;;;;;;;11.00;100.00;99010.13;2608310;28;20134;-76
2022/07/19 03:35:31;;;;;;;4.03;2.80;;;;;;;11.05;100.00;99010.91;2608046;28;20476;-77
2022/07/19 03:36:47;;;;;;;4.50;3.08;;;;;;;11.13;100.00;99011.59;2609362;28;20053;-77
2022/07/19 03:38:02;;;;;;;3.25;2.85;;;;;;;11.13;100.00;99006.38;2608927;28;20094;-76
2022/07/19 03:39:18;;;;;;;4.85;2.70;;;;;;;11.14;100.00;99009.88;2608284;28;20091;-76
2022/07/19 03:40:33;;;;;;;3.75;2.90;;;;;;;11.12;100.00;99009.03;2608111;28;20041;-76
2022/07/19 03:41:49;;;;;;;3.67;3.10;;;;;;;11.21;100.00;99005.34;2608872;28;20048;-76
2022/07/19 03:43:07;;;;;;;4.28;2.90;;;;;;;11.25;100.00;99007.88;2609008;28;20565;-76
2022/07/19 03:44:23;;;;;;;5.45;2.85;;;;;;;11.33;100.00;99006.84;2608914;28;20894;-78
2022/07/19 03:45:39;;;;;;;3.65;2.88;;;;;;;11.37;100.00;99000.63;2608582;28;20041;-77
2022/07/19 03:46:54;;;;;;;4.38;3.25;;;;;;;11.31;100.00;99009.47;2608855;28;20052;-75
2022/07/19 03:48:10;;;;;;;4.43;2.90;;;;;;;11.33;100.00;99006.84;2608854;28;20084;-76
2022/07/19 03:49:26;;;;;;;3.58;2.80;;;;;;;11.28;100.00;99007.81;2608657;28;20091;-76
2022/07/19 03:50:41;;;;;;;3.22;2.50;;;;;;;11.19;100.00;99004.53;2608407;28;20510;-76
2022/07/19 03:51:57;;;;;;;5.60;2.75;;;;;;;11.25;100.00;99010.50;2607932;28;20041;-75
2022/07/19 03:53:13;;;;;;;4.70;2.88;;;;;;;11.27;100.00;99011.31;2608737;28;20045;-77
2022/07/19 03:54:29;;;;;;;6.00;2.88;;;;;;;11.35;100.00;99012.91;2608507;28;20349;-76
2022/07/19 03:55:44;;;;;;;3.08;2.60;;;;;;;11.38;100.00;99008.47;2608084;28;20049;-75
2022/07/19 03:57:00;;;;;;;6.78;2.75;;;;;;;11.44;100.00;99005.69;2608556;28;20114;-74
2022/07/19 03:58:15;;;;;;;4.35;2.95;;;;;;;11.47;100.00;99011.78;2607468;28;20289;-75
2022/07/19 03:59:31;;;;;;;4.25;3.03;;;;;;;11.44;100.00;99008.31;2608017;28;20143;-75
2022/07/19 04:00:47;;;;;;;4.38;2.85;;;;;;;11.49;100.00;99005.59;2608786;28;20381;-74
2022/07/19 04:02:02;;;;;;;4.60;2.83;;;;;;;11.51;100.00;99002.94;2608816;28;20098;-74
2022/07/19 04:03:18;;;;;;;4.25;2.40;;;;;;;11.55;100.00;99008.09;2608680;28;20407;-74
2022/07/19 04:04:34;;;;;;;6.70;3.67;;;;;;;11.60;100.00;99000.13;2608735;28;20052;-74
2022/07/19 04:05:49;;;;;;;4.47;3.17;;;;;;;11.64;100.00;99001.75;2608503;28;20052;-74
2022/07/19 04:07:05;;;;;;;4.60;3.05;;;;;;;11.61;100.00;99000.97;2608562;28;20049;-75
2022/07/19 04:08:20;;;;;;;3.55;2.85;;;;;;;11.50;100.00;99001.22;2608823;28;20053;-74
2022/07/19 04:09:36;;;;;;;8.45;3.10;;;;;;;11.41;100.00;99003.13;2607919;28;20053;-74
2022/07/19 04:10:51;;;;;;;5.93;3.00;;;;;;;11.53;100.00;99006.38;2608365;28;20052;-74
2022/07/19 04:12:07;;;;;;;4.05;3.38;;;;;;;11.58;100.00;99007.13;2608501;28;20076;-74
2022/07/19 04:13:23;;;;;;;4.60;2.70;;;;;;;11.58;100.00;98999.25;2608967;28;20064;-74
2022/07/19 04:14:38;;;;;;;4.82;3.20;;;;;;;11.66;100.00;99001.72;2608808;28;20053;-75
2022/07/19 04:15:54;;;;;;;3.88;3.22;;;;;;;11.69;100.00;99007.75;2609025;28;20407;-74
2022/07/19 04:17:10;;;;;;;4.82;3.28;;;;;;;11.73;100.00;99014.69;2608438;28;20052;-74
2022/07/19 04:18:26;;;;;;;6.00;2.97;;;;;;;11.77;100.00;99001.47;2608696;28;20087;-74
2022/07/19 04:19:42;;;;;;;5.00;3.17;;;;;;;11.79;100.00;99008.41;2608103;28;20084;-77
2022/07/19 04:20:58;;;;;;;5.25;3.40;;;;;;;11.79;100.00;99003.16;2607840;28;20512;-76
2022/07/19 04:22:13;;;;;;;4.68;3.38;;;;;;;11.80;100.00;99004.03;2608141;28;20095;-77
2022/07/19 04:23:28;;;;;;;5.35;3.38;;;;;;;11.87;100.00;99001.22;2608567;28;20041;-76
2022/07/19 04:24:44;;;;;;;3.97;3.42;;;;;;;11.93;100.00;99012.44;2608884;28;20403;-76
2022/07/19 04:26:00;;;;;;;5.13;3.40;;;;;;;11.99;100.00;99002.66;2607077;28;20397;-76
2022/07/19 04:27:19;;;;;;;3.78;2.95;;;;;;;12.29;100.00;99000.22;2607043;28;20041;-76
2022/07/19 04:28:35;;;;;;;5.30;3.28;;;;;;;12.44;100.00;99003.34;2608200;28;20094;-77
2022/07/19 04:29:51;;;;;;;4.32;3.10;;;;;;;12.45;100.00;99004.19;2607938;28;20076;-77
2022/07/19 04:31:06;;;;;;;4.95;3.42;;;;;;;12.32;100.00;99003.66;2608109;28;20060;-77
2022/07/19 04:32:22;;;;;;;3.95;3.50;;;;;;;12.23;100.00;99000.34;2608005;28;20075;-77
2022/07/19 04:33:37;;;;;;;6.25;3.50;;;;;;;12.15;100.00;99002.31;2607403;28;20392;-77
2022/07/19 04:34:53;;;;;;;3.90;3.10;;;;;;;12.13;100.00;99002.38;2607673;28;20041;-77
2022/07/19 04:36:08;;;;;;;6.15;3.25;;;;;;;12.20;100.00;98999.56;2608283;28;20518;-77
2022/07/19 04:37:24;;;;;;;4.47;3.10;;;;;;;12.19;100.00;98995.22;2608314;28;20051;-77
2022/07/19 04:38:40;;;;;;;5.78;3.35;;;;;;;12.23;100.00;98999.50;2607856;28;20576;-77
2022/07/19 04:39:55;;;;;;;4.75;3.20;;;;;;;12.28;100.00;98998.47;2608197;28;20123;-77
2022/07/19 04:41:11;;;;;;;4.13;3.13;;;;;;;12.25;100.00;98997.72;2606644;28;20049;-76
2022/07/19 04:42:26;;;;;;;17.52;3.70;;;;;;;12.31;100.00;98999.31;2607800;28;20076;-76
2022/07/19 04:43:42;;;;;;;7.15;3.30;;;;;;;12.35;100.00;98998.31;2608147;28;20114;-77
2022/07/19 04:44:58;;;;;;;5.13;3.53;;;;;;;12.38;100.00;98999.13;2607962;28;20430;-78
2022/07/19 04:46:13;;;;;;;5.82;3.03;;;;;;;12.41;100.00;99001.66;2608069;28;20045;-77
2022/07/19 04:47:29;;;;;;;5.75;3.10;;;;;;;12.40;100.00;99004.31;2608507;28;20053;-77
2022/07/19 04:48:44;;;;;;;3.75;2.80;;;;;;;12.64;100.00;98999.31;2608840;28;20044;-77
2022/07/19 04:50:00;;;;;;;4.28;3.40;;;;;;;12.79;100.00;98998.03;2606772;28;20059;-77
2022/07/19 04:51:15;;;;;;;5.18;2.90;;;;;;;12.77;100.00;98995.44;2608104;28;20590;-76
2022/07/19 04:52:31;;;;;;;6.65;3.25;;;;;;;13.00;100.00;98993.94;2608036;28;20123;-81
2022/07/19 04:53:46;;;;;;;5.43;3.20;;;;;;;12.95;100.00;98998.44;2607124;28;20053;-77
2022/07/19 04:55:03;;;;;;;6.93;3.38;;;;;;;12.96;100.00;98992.28;2608750;28;20496;-77
2022/07/19 04:56:18;;;;;;;6.95;3.42;;;;;;;12.96;100.00;98992.28;2608032;28;20049;-78
2022/07/19 04:57:34;;;;;;;7.13;3.08;;;;;;;12.95;100.00;98988.78;2608660;28;20095;-77
2022/07/19 04:58:49;;;;;;;4.18;3.10;;;;;;;13.05;100.00;98989.38;2607324;28;20458;-77
2022/07/19 05:00:09;;;;;;;6.32;2.97;;;;;;;13.16;100.00;98993.47;2606764;28;20479;-77
2022/07/19 05:01:24;;;;;;;6.65;3.08;;;;;;;13.23;100.00;98995.88;2607805;28;20495;-77
2022/07/19 05:02:40;;;;;;;4.22;3.13;;;;;;;13.24;100.00;98994.97;2607970;28;20063;-79
2022/07/19 05:03:56;;;;;;;3.42;3.13;;;;;;;13.31;100.00;99000.03;2607992;28;20045;-77
2022/07/19 05:05:11;;;;;;;4.75;3.20;;;;;;;13.28;100.00;98995.72;2607171;28;20041;-80
2022/07/19 05:06:27;;;;;;;4.00;3.00;;;;;;;13.48;100.00;98997.78;2608291;28;20057;-78
2022/07/19 05:07:44;;;;;;;6.50;2.88;;;;;;;13.64;100.00;98992.88;2608439;28;20522;-77
2022/07/19 05:08:59;;;;;;;4.68;3.35;;;;;;;13.67;100.00;98990.16;2608221;28;20045;-77
2022/07/19 05:10:15;;;;;;;6.15;3.38;;;;;;;13.67;100.00;98994.56;2608200;28;20491;-77
2022/07/19 05:11:31;;;;;;;6.95;3.30;;;;;;;13.72;100.00;98990.00;2608200;28;20053;-77
2022/07/19 05:12:46;;;;;;;4.22;2.78;;;;;;;13.73;100.00;98988.25;2607656;28;20045;-77
2022/07/19 05:14:02;;;;;;;5.45;2.80;;;;;;;13.82;100.00;98986.19;2608267;28;20068;-81
2022/07/19 05:15:18;;;;;;;4.45;2.90;;;;;;;14.00;100.00;98977.72;2607940;28;20048;-78
2022/07/19 05:16:33;;;;;;;3.38;3.00;;;;;;;13.80;100.00;98988.00;2607751;28;20045;-77
2022/07/19 05:17:49;;;;;;;3.10;2.80;;;;;;;13.79;100.00;98988.03;2606193;28;20107;-77
2022/07/19 05:19:04;;;;;;;4.00;3.03;;;;;;;13.78;100.00;98983.69;2607833;28;20102;-78
2022/07/19 05:20:20;;;;;;;5.32;3.10;;;;;;;13.78;100.00;98979.31;2607872;28;20052;-77
2022/07/19 05:21:36;;;;;;;5.78;3.10;;;;;;;13.82;100.00;98983.53;2607653;28;20124;-77
2022/07/19 05:22:51;;;;;;;4.88;3.17;;;;;;;13.84;100.00;98980.88;2607660;28;20411;-76
2022/07/19 05:24:07;;;;;;;4.15;3.20;;;;;;;13.98;100.00;98978.66;2608229;28;20084;-77
2022/07/19 05:25:22;;;;;;;5.10;2.92;;;;;;;14.06;100.00;98982.78;2607109;28;20060;-76
2022/07/19 05:26:38;;;;;;;3.95;3.13;;;;;;;14.08;100.00;98978.31;2607594;28;20045;-76
2022/07/19 05:27:56;;;;;;;4.25;2.92;;;;;;;14.29;100.00;98979.34;2607680;28;20045;-76
2022/07/19 05:29:12;;;;;;;4.07;2.83;;;;;;;14.25;100.00;98975.13;2608238;28;20123;-75
2022/07/19 05:30:27;;;;;;;6.65;3.53;;;;;;;14.35;100.00;98980.91;2608168;28;20118;-76
2022/07/19 05:31:43;;;;;;;5.18;3.03;;;;;;;14.46;100.00;98981.41;2607978;28;20498;-76
2022/07/19 05:32:58;;;;;;;6.90;3.42;;;;;;;14.50;100.00;98988.28;2607572;28;20640;-75
2022/07/19 05:34:14;;;;;;;4.07;3.05;;;;;;;14.53;100.00;98989.97;2607653;28;20091;-76
2022/07/19 05:35:30;;;;;;;3.30;2.95;;;;;;;14.62;100.00;98994.03;2608165;28;20060;-76
2022/07/19 05:36:46;;;;;;;4.70;2.78;;;;;;;14.66;100.00;98988.59;2607688;28;20056;-76
2022/07/19 05:38:02;;;;;;;6.95;2.97;;;;;;;14.65;100.00;98988.66;2608046;28;20060;-76
2022/07/19 05:39:17;;;;;;;4.03;2.97;;;;;;;14.79;100.00;98985.56;2607112;28;20045;-76
2022/07/19 05:40:33;;;;;;;5.55;3.05;;;;;;;14.90;100.00;98990.44;2607930;28;20553;-75
2022/07/19 05:41:48;;;;;;;10.27;3.30;;;;;;;14.97;100.00;98991.94;2608050;28;20052;-76
2022/07/19 05:43:04;;;;;;;7.43;3.60;;;;;;;14.93;100.00;99000.84;2608179;28;20057;-76
2022/07/19 05:44:19;;;;;;;5.72;3.40;;;;;;;15.08;100.00;98992.38;2607817;28;20045;-76
2022/07/19 05:45:35;;;;;;;6.47;3.33;;;;;;;15.12;100.00;98990.50;2607834;28;20049;-76
2022/07/19 05:46:51;;;;;;;4.10;2.92;;;;;;;15.20;100.00;98998.09;2607479;28;20067;-75
2022/07/19 05:48:06;;;;;;;5.90;2.95;;;;;;;15.10;100.00;98998.47;2607625;28;20087;-75
2022/07/19 05:49:22;;;;;;;4.13;2.67;;;;;;;15.25;100.00;98996.16;2607863;28;20598;-76
2022/07/19 05:50:38;;;;;;;9.13;2.92;;;;;;;15.31;100.00;98990.66;2607405;28;20080;-76
2022/07/19 05:51:53;;;;;;;2.72;2.47;;;;;;;15.31;100.00;98990.66;2607508;28;20076;-81